createdAt,value
2022-08-25T00:00:19.659Z,0.00
2022-08-25T00:01:19.638Z,0.00
2022-08-25T00:02:19.689Z,0.00
2022-08-25T00:03:19.618Z,0.00
2022-08-25T00:04:19.620Z,0.00
2022-08-25T00:05:19.657Z,0.00
2022-08-25T00:06:19.579Z,0.00
2022-08-25T00:07:19.549Z,0.00
2022-08-25T00:08:19.538Z,0.00
2022-08-25T00:09:19.519Z,0.00
2022-08-25T00:10:19.526Z,0.00
2022-08-25T00:11:19.498Z,0.00
2022-08-25T00:12:19.490Z,0.00
2022-08-25T00:13:19.470Z,0.00
2022-08-25T00:14:19.459Z,0.00
2022-08-25T00:15:19.458Z,0.00
2022-08-25T00:16:19.510Z,0.00
2022-08-25T00:17:19.431Z,0.00
2022-08-25T00:18:19.422Z,0.00
2022-08-25T00:19:19.405Z,0.00
2022-08-25T00:20:19.400Z,0.00
2022-08-25T00:21:19.392Z,0.00
2022-08-25T00:22:19.373Z,0.00
2022-08-25T00:23:19.341Z,0.00
2022-08-25T00:24:19.838Z,0.00
2022-08-25T00:25:19.312Z,0.00
2022-08-25T00:26:19.302Z,0.00
2022-08-25T00:27:19.304Z,0.00
2022-08-25T00:28:19.272Z,0.00
2022-08-25T00:29:19.262Z,0.00
2022-08-25T00:30:19.262Z,0.00
2022-08-25T00:31:19.291Z,0.00
2022-08-25T00:32:19.234Z,0.00
2022-08-25T00:33:19.234Z,0.00
2022-08-25T00:34:19.217Z,0.00
2022-08-25T00:35:19.183Z,0.00
2022-08-25T00:36:19.180Z,0.00
2022-08-25T00:37:19.164Z,0.00
2022-08-25T00:38:19.155Z,0.00
2022-08-25T00:39:19.147Z,0.00
2022-08-25T00:40:19.191Z,0.00
2022-08-25T00:41:19.111Z,0.00
2022-08-25T00:42:19.103Z,0.00
2022-08-25T00:43:19.085Z,0.00
2022-08-25T00:44:19.089Z,0.00
2022-08-25T00:45:19.056Z,0.00
2022-08-25T00:46:19.133Z,0.00
2022-08-25T00:47:19.024Z,0.00
2022-08-25T00:48:19.024Z,0.00
2022-08-25T00:49:25.422Z,0.00
2022-08-25T00:50:20.010Z,0.00
2022-08-25T00:51:18.985Z,0.00
2022-08-25T00:52:18.964Z,0.00
2022-08-25T00:53:18.954Z,0.00
2022-08-25T00:54:18.944Z,0.00
2022-08-25T00:55:18.926Z,0.00
2022-08-25T00:56:18.917Z,0.00
2022-08-25T00:57:18.921Z,0.00
2022-08-25T00:58:19.895Z,0.00
2022-08-25T00:59:18.877Z,0.00
2022-08-25T01:00:18.878Z,0.00
2022-08-25T01:01:18.951Z,0.00
2022-08-25T01:02:18.881Z,0.00
2022-08-25T01:03:18.817Z,0.00
2022-08-25T01:04:18.815Z,0.00
2022-08-25T01:05:18.796Z,0.00
2022-08-25T01:06:18.777Z,0.00
2022-08-25T01:07:18.807Z,0.00
2022-08-25T01:08:18.757Z,0.00
2022-08-25T01:09:18.779Z,0.00
2022-08-25T01:10:18.728Z,0.00
2022-08-25T01:11:18.726Z,0.00
2022-08-25T01:12:18.719Z,0.00
2022-08-25T01:13:18.698Z,0.00
2022-08-25T01:14:18.680Z,0.00
2022-08-25T01:15:18.682Z,0.00
2022-08-25T01:16:18.724Z,0.00
2022-08-25T01:17:18.650Z,0.00
2022-08-25T01:18:18.638Z,0.00
2022-08-25T01:19:18.608Z,0.00
2022-08-25T01:20:18.598Z,0.00
2022-08-25T01:21:18.599Z,0.00
2022-08-25T01:22:18.568Z,0.00
2022-08-25T01:23:18.560Z,0.00
2022-08-25T01:24:18.553Z,0.00
2022-08-25T01:25:18.548Z,0.00
2022-08-25T01:26:18.540Z,0.00
2022-08-25T01:27:18.550Z,0.00
2022-08-25T01:28:18.528Z,0.00
2022-08-25T01:29:18.490Z,0.00
2022-08-25T01:30:18.480Z,0.00
2022-08-25T01:31:23.716Z,0.00
2022-08-25T01:32:19.462Z,0.00
2022-08-25T01:33:18.431Z,0.00
2022-08-25T01:34:18.441Z,0.00
2022-08-25T01:35:18.400Z,0.00
2022-08-25T01:36:18.391Z,0.00
2022-08-25T01:37:18.370Z,0.00
2022-08-25T01:38:18.360Z,0.00
2022-08-25T01:39:18.353Z,0.00
2022-08-25T01:40:18.456Z,0.00
2022-08-25T01:41:18.332Z,0.00
2022-08-25T01:42:18.313Z,0.00
2022-08-25T01:43:18.302Z,0.00
2022-08-25T01:44:18.292Z,0.00
2022-08-25T01:45:18.273Z,0.00
2022-08-25T01:46:18.290Z,0.00
2022-08-25T01:47:18.246Z,0.00
2022-08-25T01:48:18.240Z,0.00
2022-08-25T01:49:18.222Z,0.00
2022-08-25T01:50:18.209Z,0.00
2022-08-25T01:51:18.203Z,0.00
2022-08-25T01:52:18.194Z,0.00
2022-08-25T01:53:18.174Z,0.00
2022-08-25T01:54:18.155Z,0.00
2022-08-25T01:55:18.146Z,0.00
2022-08-25T01:56:18.133Z,0.00
2022-08-25T01:57:18.123Z,0.00
2022-08-25T01:58:18.115Z,0.00
2022-08-25T01:59:21.625Z,0.00
2022-08-25T02:00:19.080Z,0.00
2022-08-25T02:01:18.135Z,0.00
2022-08-25T02:02:18.401Z,0.00
2022-08-25T02:03:19.114Z,0.00
2022-08-25T02:04:18.034Z,0.00
2022-08-25T02:05:21.553Z,0.00
2022-08-25T02:06:18.996Z,0.00
2022-08-25T02:07:17.996Z,0.00
2022-08-25T02:08:17.966Z,0.00
2022-08-25T02:09:17.956Z,0.00
2022-08-25T02:10:17.946Z,0.00
2022-08-25T02:11:17.957Z,0.00
2022-08-25T02:12:17.924Z,0.00
2022-08-25T02:13:17.916Z,0.00
2022-08-25T02:14:17.907Z,0.00
2022-08-25T02:15:17.875Z,0.00
2022-08-25T02:16:17.918Z,0.00
2022-08-25T02:17:17.865Z,0.00
2022-08-25T02:18:17.827Z,0.00
2022-08-25T02:19:17.824Z,0.00
2022-08-25T02:20:17.807Z,0.00
2022-08-25T02:21:17.795Z,0.00
2022-08-25T02:22:17.776Z,0.00
2022-08-25T02:23:17.788Z,0.00
2022-08-25T02:24:17.766Z,0.00
2022-08-25T02:25:17.759Z,0.00
2022-08-25T02:26:17.739Z,0.00
2022-08-25T02:27:17.719Z,0.00
2022-08-25T02:28:17.709Z,0.00
2022-08-25T02:29:17.736Z,0.00
2022-08-25T02:30:17.682Z,0.00
2022-08-25T02:31:17.688Z,0.00
2022-08-25T02:32:17.656Z,0.00
2022-08-25T02:33:17.627Z,0.00
2022-08-25T02:34:17.638Z,0.00
2022-08-25T02:35:17.598Z,0.00
2022-08-25T02:36:17.645Z,0.00
2022-08-25T02:37:17.579Z,0.00
2022-08-25T02:38:17.619Z,0.00
2022-08-25T02:39:17.580Z,0.00
2022-08-25T02:40:17.732Z,0.00
2022-08-25T02:41:17.538Z,0.00
2022-08-25T02:42:17.521Z,0.00
2022-08-25T02:43:17.510Z,0.00
2022-08-25T02:44:17.479Z,0.00
2022-08-25T02:45:17.469Z,0.00
2022-08-25T02:46:17.533Z,0.00
2022-08-25T02:47:17.451Z,0.00
2022-08-25T02:48:18.441Z,0.00
2022-08-25T02:49:17.422Z,0.00
2022-08-25T02:50:17.412Z,0.00
2022-08-25T02:51:17.391Z,0.00
2022-08-25T02:52:17.373Z,0.00
2022-08-25T02:53:17.363Z,0.00
2022-08-25T02:54:17.362Z,0.00
2022-08-25T02:55:17.331Z,0.00
2022-08-25T02:56:17.320Z,0.00
2022-08-25T02:57:17.321Z,0.00
2022-08-25T02:58:17.291Z,0.00
2022-08-25T02:59:17.291Z,0.00
2022-08-25T03:00:17.275Z,0.00
2022-08-25T03:01:17.293Z,0.00
2022-08-25T03:02:17.231Z,0.00
2022-08-25T03:03:17.233Z,0.00
2022-08-25T03:04:17.213Z,0.00
2022-08-25T03:05:17.277Z,0.00
2022-08-25T03:06:17.233Z,0.00
2022-08-25T03:07:17.174Z,0.00
2022-08-25T03:08:17.166Z,0.00
2022-08-25T03:09:17.153Z,0.00
2022-08-25T03:10:17.137Z,0.00
2022-08-25T03:11:17.123Z,0.00
2022-08-25T03:12:17.127Z,0.00
2022-08-25T03:13:17.093Z,0.00
2022-08-25T03:14:17.108Z,0.00
2022-08-25T03:15:17.107Z,0.00
2022-08-25T03:16:17.092Z,0.00
2022-08-25T03:17:17.035Z,0.00
2022-08-25T03:18:17.043Z,0.00
2022-08-25T03:19:17.026Z,0.00
2022-08-25T03:20:17.004Z,0.00
2022-08-25T03:21:16.996Z,0.00
2022-08-25T03:22:16.976Z,0.00
2022-08-25T03:23:16.967Z,0.00
2022-08-25T03:24:16.995Z,0.00
2022-08-25T03:25:18.964Z,0.00
2022-08-25T03:26:17.917Z,0.00
2022-08-25T03:27:16.913Z,0.00
2022-08-25T03:28:25.013Z,0.00
2022-08-25T03:29:17.888Z,0.00
2022-08-25T03:30:16.886Z,0.00
2022-08-25T03:31:16.896Z,0.00
2022-08-25T03:32:16.852Z,4.00
2022-08-25T03:33:16.855Z,4.00
2022-08-25T03:34:16.879Z,0.00
2022-08-25T03:35:16.825Z,4.00
2022-08-25T03:36:16.814Z,4.00
2022-08-25T03:37:16.846Z,4.00
2022-08-25T03:38:16.817Z,4.00
2022-08-25T03:39:16.787Z,4.00
2022-08-25T03:40:16.794Z,4.00
2022-08-25T03:41:16.746Z,8.00
2022-08-25T03:42:16.726Z,8.00
2022-08-25T03:43:16.695Z,12.00
2022-08-25T03:44:16.684Z,16.00
2022-08-25T03:45:16.688Z,16.00
2022-08-25T03:46:16.734Z,20.00
2022-08-25T03:47:16.771Z,20.00
2022-08-25T03:48:16.651Z,24.00
2022-08-25T03:49:16.636Z,28.00
2022-08-25T03:50:16.616Z,36.00
2022-08-25T03:51:16.595Z,40.00
2022-08-25T03:52:16.592Z,44.00
2022-08-25T03:53:16.579Z,52.00
2022-08-25T03:54:16.589Z,60.00
2022-08-25T03:55:16.567Z,64.00
2022-08-25T03:56:16.537Z,76.00
2022-08-25T03:57:16.528Z,84.00
2022-08-25T03:58:16.508Z,92.00
2022-08-25T03:59:16.485Z,104.00
2022-08-25T04:00:16.494Z,112.00
2022-08-25T04:01:16.742Z,128.00
2022-08-25T04:02:16.463Z,140.00
2022-08-25T04:03:16.433Z,156.00
2022-08-25T04:04:16.505Z,168.00
2022-08-25T04:05:16.395Z,176.00
2022-08-25T04:06:16.454Z,188.00
2022-08-25T04:07:16.364Z,204.00
2022-08-25T04:08:16.351Z,216.00
2022-08-25T04:09:16.355Z,228.00
2022-08-25T04:10:16.323Z,240.00
2022-08-25T04:11:16.313Z,248.00
2022-08-25T04:12:16.307Z,264.00
2022-08-25T04:13:16.297Z,272.00
2022-08-25T04:14:16.758Z,280.00
2022-08-25T04:15:16.272Z,300.00
2022-08-25T04:16:16.292Z,308.00
2022-08-25T04:17:16.247Z,328.00
2022-08-25T04:18:16.218Z,340.00
2022-08-25T04:19:16.209Z,360.00
2022-08-25T04:20:16.204Z,376.00
2022-08-25T04:21:16.183Z,400.00
2022-08-25T04:22:16.166Z,428.00
2022-08-25T04:23:16.156Z,452.00
2022-08-25T04:24:16.145Z,476.00
2022-08-25T04:25:16.124Z,504.00
2022-08-25T04:26:16.104Z,528.00
2022-08-25T04:27:16.096Z,540.00
2022-08-25T04:28:16.085Z,552.00
2022-08-25T04:29:16.079Z,560.00
2022-08-25T04:30:16.058Z,576.00
2022-08-25T04:31:16.108Z,612.00
2022-08-25T04:32:16.040Z,632.00
2022-08-25T04:33:16.018Z,640.00
2022-08-25T04:34:30.722Z,672.00
2022-08-25T04:35:16.997Z,688.00
2022-08-25T04:36:15.968Z,704.00
2022-08-25T04:37:15.956Z,716.00
2022-08-25T04:38:15.947Z,748.00
2022-08-25T04:39:15.938Z,744.00
2022-08-25T04:40:15.998Z,788.00
2022-08-25T04:41:15.907Z,804.00
2022-08-25T04:42:15.888Z,812.00
2022-08-25T04:43:15.879Z,820.00
2022-08-25T04:44:15.868Z,864.00
2022-08-25T04:45:15.889Z,868.00
2022-08-25T04:46:20.008Z,904.00
2022-08-25T04:47:15.821Z,908.00
2022-08-25T04:48:15.809Z,920.00
2022-08-25T04:49:15.858Z,928.00
2022-08-25T04:50:15.798Z,936.00
2022-08-25T04:51:15.789Z,972.00
2022-08-25T04:52:15.799Z,960.00
2022-08-25T04:53:15.752Z,984.00
2022-08-25T04:54:15.721Z,1028.00
2022-08-25T04:55:15.743Z,1048.00
2022-08-25T04:56:15.700Z,1052.00
2022-08-25T04:57:15.711Z,1052.00
2022-08-25T04:58:16.681Z,1068.00
2022-08-25T04:59:15.662Z,1104.00
2022-08-25T05:00:15.686Z,1116.00
2022-08-25T05:01:15.679Z,1144.00
2022-08-25T05:02:15.643Z,1136.00
2022-08-25T05:03:15.602Z,1136.00
2022-08-25T05:04:28.245Z,1120.00
2022-08-25T05:05:16.581Z,1124.00
2022-08-25T05:06:16.427Z,1152.00
2022-08-25T05:07:15.599Z,1168.00
2022-08-25T05:08:15.531Z,1176.00
2022-08-25T05:09:15.544Z,1176.00
2022-08-25T05:10:15.535Z,1180.00
2022-08-25T05:11:15.853Z,1136.00
2022-08-25T05:12:15.527Z,1140.00
2022-08-25T05:13:15.493Z,1148.00
2022-08-25T05:14:15.514Z,1144.00
2022-08-25T05:15:15.484Z,1104.00
2022-08-25T05:16:15.598Z,1044.00
2022-08-25T05:17:15.507Z,1000.00
2022-08-25T05:18:15.403Z,1072.00
2022-08-25T05:19:15.452Z,1076.00
2022-08-25T05:20:15.393Z,1084.00
2022-08-25T05:21:15.373Z,1084.00
2022-08-25T05:22:15.383Z,1056.00
2022-08-25T05:23:15.354Z,1084.00
2022-08-25T05:24:15.350Z,1052.00
2022-08-25T05:25:15.324Z,1064.00
2022-08-25T05:26:19.604Z,1084.00
2022-08-25T05:27:16.295Z,1064.00
2022-08-25T05:28:15.285Z,1124.00
2022-08-25T05:29:15.275Z,1116.00
2022-08-25T05:30:15.304Z,1176.00
2022-08-25T05:31:15.308Z,1232.00
2022-08-25T05:32:15.276Z,1224.00
2022-08-25T05:33:15.221Z,1252.00
2022-08-25T05:34:15.197Z,1292.00
2022-08-25T05:35:15.193Z,1320.00
2022-08-25T05:36:15.197Z,1364.00
2022-08-25T05:37:15.183Z,1444.00
2022-08-25T05:38:15.607Z,1580.00
2022-08-25T05:39:15.129Z,1632.00
2022-08-25T05:40:15.200Z,1652.00
2022-08-25T05:41:15.126Z,1668.00
2022-08-25T05:42:15.108Z,1700.00
2022-08-25T05:43:15.115Z,1776.00
2022-08-25T05:44:19.112Z,1916.00
2022-08-25T05:45:20.262Z,1856.00
2022-08-25T05:46:15.113Z,1844.00
2022-08-25T05:47:17.728Z,1828.00
2022-08-25T05:48:15.020Z,1804.00
2022-08-25T05:49:15.028Z,1868.00
2022-08-25T05:50:14.998Z,1908.00
2022-08-25T05:51:14.981Z,1884.00
2022-08-25T05:52:18.137Z,1952.00
2022-08-25T05:53:15.948Z,2036.00
2022-08-25T05:54:14.988Z,2088.00
2022-08-25T05:55:14.929Z,2180.00
2022-08-25T05:56:14.915Z,2248.00
2022-08-25T05:57:14.919Z,2212.00
2022-08-25T05:58:14.901Z,2324.00
2022-08-25T05:59:14.929Z,2464.00
2022-08-25T06:00:14.881Z,2532.00
2022-08-25T06:01:14.931Z,2492.00
2022-08-25T06:02:14.851Z,2420.00
2022-08-25T06:03:14.863Z,2484.00
2022-08-25T06:04:14.853Z,2596.00
2022-08-25T06:05:14.811Z,2396.00
2022-08-25T06:06:14.780Z,2488.00
2022-08-25T06:07:14.774Z,2564.00
2022-08-25T06:08:14.771Z,2632.00
2022-08-25T06:09:14.761Z,2448.00
2022-08-25T06:10:14.731Z,2480.00
2022-08-25T06:11:14.722Z,2612.00
2022-08-25T06:12:14.712Z,2560.00
2022-08-25T06:13:14.727Z,2504.00
2022-08-25T06:14:14.693Z,2604.00
2022-08-25T06:15:14.696Z,2580.00
2022-08-25T06:16:14.697Z,2620.00
2022-08-25T06:17:14.654Z,2736.00
2022-08-25T06:18:14.658Z,2868.00
2022-08-25T06:19:14.625Z,3012.00
2022-08-25T06:20:14.617Z,2964.00
2022-08-25T06:21:15.764Z,2928.00
2022-08-25T06:22:14.575Z,3112.00
2022-08-25T06:23:14.553Z,3000.00
2022-08-25T06:24:15.749Z,3032.00
2022-08-25T06:25:14.532Z,3036.00
2022-08-25T06:26:20.717Z,2976.00
2022-08-25T06:27:15.572Z,2972.00
2022-08-25T06:28:14.502Z,3052.00
2022-08-25T06:29:14.484Z,3048.00
2022-08-25T06:30:14.497Z,2912.00
2022-08-25T06:31:14.549Z,2896.00
2022-08-25T06:32:14.506Z,3108.00
2022-08-25T06:33:14.466Z,3280.00
2022-08-25T06:34:14.415Z,3332.00
2022-08-25T06:35:14.409Z,3336.00
2022-08-25T06:36:14.401Z,3352.00
2022-08-25T06:37:14.377Z,3176.00
2022-08-25T06:38:14.395Z,3172.00
2022-08-25T06:39:14.368Z,3436.00
2022-08-25T06:40:14.376Z,3360.00
2022-08-25T06:41:14.395Z,3252.00
2022-08-25T06:42:14.313Z,3316.00
2022-08-25T06:43:14.294Z,3680.00
2022-08-25T06:44:14.285Z,3776.00
2022-08-25T06:45:14.285Z,3656.00
2022-08-25T06:46:14.257Z,3736.00
2022-08-25T06:47:14.376Z,3864.00
2022-08-25T06:48:14.259Z,3796.00
2022-08-25T06:49:14.216Z,3876.00
2022-08-25T06:50:14.208Z,4036.00
2022-08-25T06:51:14.416Z,3768.00
2022-08-25T06:52:14.180Z,3724.00
2022-08-25T06:53:14.158Z,3784.00
2022-08-25T06:54:14.147Z,3756.00
2022-08-25T06:55:14.127Z,3748.00
2022-08-25T06:56:14.118Z,3940.00
2022-08-25T06:57:14.118Z,3812.00
2022-08-25T06:58:14.131Z,3700.00
2022-08-25T06:59:14.089Z,3600.00
2022-08-25T07:00:14.122Z,3676.00
2022-08-25T07:01:15.930Z,3624.00
2022-08-25T07:02:15.081Z,3784.00
2022-08-25T07:03:15.299Z,3656.00
2022-08-25T07:04:14.019Z,3428.00
2022-08-25T07:05:26.910Z,3364.00
2022-08-25T07:06:14.999Z,3356.00
2022-08-25T07:07:13.986Z,3588.00
2022-08-25T07:08:13.985Z,3852.00
2022-08-25T07:09:13.981Z,4368.00
2022-08-25T07:10:13.959Z,4692.00
2022-08-25T07:11:16.413Z,4564.00
2022-08-25T07:12:13.932Z,4540.00
2022-08-25T07:13:13.952Z,4744.00
2022-08-25T07:14:13.911Z,4804.00
2022-08-25T07:15:20.171Z,4996.00
2022-08-25T07:16:14.906Z,4864.00
2022-08-25T07:17:13.851Z,5064.00
2022-08-25T07:18:13.861Z,5284.00
2022-08-25T07:19:14.759Z,5096.00
2022-08-25T07:20:13.929Z,5004.00
2022-08-25T07:21:13.825Z,4732.00
2022-08-25T07:22:13.791Z,4728.00
2022-08-25T07:23:13.790Z,4728.00
2022-08-25T07:24:13.793Z,4656.00
2022-08-25T07:25:13.786Z,4396.00
2022-08-25T07:26:36.396Z,4372.00
2022-08-25T07:27:14.762Z,4288.00
2022-08-25T07:28:13.746Z,4612.00
2022-08-25T07:29:13.761Z,4532.00
2022-08-25T07:30:13.692Z,4548.00
2022-08-25T07:31:13.759Z,4748.00
2022-08-25T07:32:13.657Z,4780.00
2022-08-25T07:33:13.806Z,4564.00
2022-08-25T07:34:13.634Z,4620.00
2022-08-25T07:35:13.744Z,4792.00
2022-08-25T07:36:13.605Z,5060.00
2022-08-25T07:37:23.760Z,5132.00
2022-08-25T07:38:20.762Z,4796.00
2022-08-25T07:39:14.563Z,5196.00
2022-08-25T07:40:13.665Z,5512.00
2022-08-25T07:41:13.554Z,5728.00
2022-08-25T07:42:13.528Z,5864.00
2022-08-25T07:43:13.521Z,6020.00
2022-08-25T07:44:13.498Z,6276.00
2022-08-25T07:45:13.598Z,6056.00
2022-08-25T07:46:13.541Z,6008.00
2022-08-25T07:47:13.456Z,5836.00
2022-08-25T07:48:13.467Z,6100.00
2022-08-25T07:49:16.663Z,6212.00
2022-08-25T07:50:13.439Z,6244.00
2022-08-25T07:51:13.399Z,6064.00
2022-08-25T07:52:13.397Z,6368.00
2022-08-25T07:53:13.377Z,6232.00
2022-08-25T07:54:13.462Z,5952.00
2022-08-25T07:55:13.569Z,5972.00
2022-08-25T07:56:13.373Z,5940.00
2022-08-25T07:57:13.321Z,6036.00
2022-08-25T07:58:13.321Z,6488.00
2022-08-25T07:59:13.301Z,6772.00
2022-08-25T08:00:13.311Z,6816.00
2022-08-25T08:01:13.268Z,7072.00
2022-08-25T08:02:18.652Z,6884.00
2022-08-25T08:03:29.388Z,6976.00
2022-08-25T08:04:14.262Z,7088.00
2022-08-25T08:05:13.223Z,6988.00
2022-08-25T08:06:13.221Z,7120.00
2022-08-25T08:07:13.192Z,7204.00
2022-08-25T08:08:13.202Z,7140.00
2022-08-25T08:09:13.161Z,6880.00
2022-08-25T08:11:14.161Z,6660.00
2022-08-25T08:12:13.133Z,6640.00
2022-08-25T08:13:16.671Z,6988.00
2022-08-25T08:14:14.101Z,7124.00
2022-08-25T08:15:13.101Z,6764.00
2022-08-25T08:16:13.409Z,7104.00
2022-08-25T08:17:13.061Z,6844.00
2022-08-25T08:18:13.063Z,6864.00
2022-08-25T08:19:13.041Z,7604.00
2022-08-25T08:20:13.032Z,7472.00
2022-08-25T08:21:13.014Z,6800.00
2022-08-25T08:22:14.023Z,7164.00
2022-08-25T08:23:12.985Z,7392.00
2022-08-25T08:24:31.227Z,7408.00
2022-08-25T08:25:21.426Z,7112.00
2022-08-25T08:26:13.955Z,6980.00
2022-08-25T08:27:12.976Z,6848.00
2022-08-25T08:28:12.947Z,6976.00
2022-08-25T08:29:12.936Z,7416.00
2022-08-25T08:30:12.915Z,7264.00
2022-08-25T08:31:12.907Z,6680.00
2022-08-25T08:32:12.926Z,7116.00
2022-08-25T08:33:13.081Z,7536.00
2022-08-25T08:34:12.836Z,7200.00
2022-08-25T08:35:12.837Z,7812.00
2022-08-25T08:36:12.826Z,7976.00
2022-08-25T08:37:12.807Z,7444.00
2022-08-25T08:38:18.475Z,7416.00
2022-08-25T08:39:13.779Z,7688.00
2022-08-25T08:40:12.823Z,8376.00
2022-08-25T08:41:12.850Z,7832.00
2022-08-25T08:42:12.856Z,7552.00
2022-08-25T08:43:17.997Z,7280.00
2022-08-25T08:44:13.729Z,7084.00
2022-08-25T08:45:12.722Z,7572.00
2022-08-25T08:46:12.758Z,7452.00
2022-08-25T08:47:12.669Z,7028.00
2022-08-25T08:48:12.670Z,7052.00
2022-08-25T08:49:12.638Z,7340.00
2022-08-25T08:50:13.297Z,7832.00
2022-08-25T08:51:12.609Z,8020.00
2022-08-25T08:52:12.709Z,8228.00
2022-08-25T08:53:12.600Z,8264.00
2022-08-25T08:54:15.573Z,8172.00
2022-08-25T08:55:12.589Z,7864.00
2022-08-25T08:56:12.568Z,7704.00
2022-08-25T08:57:12.551Z,7876.00
2022-08-25T08:58:12.551Z,8064.00
2022-08-25T08:59:12.520Z,8264.00
2022-08-25T09:00:12.533Z,8372.00
2022-08-25T09:01:12.534Z,7948.00
2022-08-25T09:02:13.688Z,7996.00
2022-08-25T09:03:12.480Z,7780.00
2022-08-25T09:04:12.457Z,7864.00
2022-08-25T09:05:12.454Z,7848.00
2022-08-25T09:06:12.473Z,7756.00
2022-08-25T09:07:12.513Z,7900.00
2022-08-25T09:08:12.417Z,8260.00
2022-08-25T09:09:12.404Z,8376.00
2022-08-25T09:10:12.382Z,8516.00
2022-08-25T09:11:12.362Z,8344.00
2022-08-25T09:12:12.363Z,7884.00
2022-08-25T09:13:12.734Z,7640.00
2022-08-25T09:14:12.333Z,7328.00
2022-08-25T09:15:13.532Z,6812.00
2022-08-25T09:16:20.676Z,6480.00
2022-08-25T09:17:13.302Z,6848.00
2022-08-25T09:18:12.679Z,7096.00
2022-08-25T09:19:12.274Z,7936.00
2022-08-25T09:20:18.797Z,7940.00
2022-08-25T09:21:13.235Z,8388.00
2022-08-25T09:22:35.073Z,8396.00
2022-08-25T09:23:13.209Z,8352.00
2022-08-25T09:24:12.207Z,8088.00
2022-08-25T09:25:12.195Z,7608.00
2022-08-25T09:26:12.167Z,7792.00
2022-08-25T09:27:12.157Z,7524.00
2022-08-25T09:28:12.155Z,7836.00
2022-08-25T09:29:19.265Z,7732.00
2022-08-25T09:30:12.135Z,7320.00
2022-08-25T09:31:12.146Z,6924.00
2022-08-25T09:32:12.147Z,6600.00
2022-08-25T09:33:12.087Z,5720.00
2022-08-25T09:34:12.076Z,5716.00
2022-08-25T09:35:12.077Z,6080.00
2022-08-25T09:36:12.054Z,6816.00
2022-08-25T09:37:12.044Z,6652.00
2022-08-25T09:38:12.037Z,6760.00
2022-08-25T09:39:12.006Z,7036.00
2022-08-25T09:40:12.079Z,6740.00
2022-08-25T09:41:12.000Z,6560.00
2022-08-25T09:42:11.966Z,6148.00
2022-08-25T09:43:11.958Z,6068.00
2022-08-25T09:44:11.938Z,6228.00
2022-08-25T09:45:12.008Z,6636.00
2022-08-25T09:46:11.954Z,6360.00
2022-08-25T09:47:11.905Z,6100.00
2022-08-25T09:48:11.940Z,5044.00
2022-08-25T09:49:11.926Z,5592.00
2022-08-25T09:50:11.879Z,5788.00
2022-08-25T09:51:12.870Z,5208.00
2022-08-25T09:52:12.753Z,5348.00
2022-08-25T09:53:18.559Z,5284.00
2022-08-25T09:54:12.819Z,6232.00
2022-08-25T09:55:13.204Z,6236.00
2022-08-25T09:56:11.790Z,5244.00
2022-08-25T09:57:11.781Z,5684.00
2022-08-25T09:58:11.758Z,4932.00
2022-08-25T09:59:15.662Z,5544.00
2022-08-25T10:00:11.739Z,5332.00
2022-08-25T10:01:11.736Z,6408.00
2022-08-25T10:02:11.700Z,7028.00
2022-08-25T10:03:11.701Z,6840.00
2022-08-25T10:04:17.754Z,8728.00
2022-08-25T10:05:12.836Z,8840.00
2022-08-25T10:06:13.160Z,8200.00
2022-08-25T10:07:11.663Z,8320.00
2022-08-25T10:08:11.636Z,8128.00
2022-08-25T10:09:11.624Z,8272.00
2022-08-25T10:10:13.587Z,8460.00
2022-08-25T10:11:11.665Z,8924.00
2022-08-25T10:12:11.581Z,9900.00
2022-08-25T10:13:11.574Z,9812.00
2022-08-25T10:14:11.551Z,10756.00
2022-08-25T10:15:11.551Z,9700.00
2022-08-25T10:16:20.628Z,9064.00
2022-08-25T10:17:12.507Z,8496.00
2022-08-25T10:18:11.501Z,8904.00
2022-08-25T10:19:11.512Z,7632.00
2022-08-25T10:20:11.525Z,7416.00
2022-08-25T10:21:11.484Z,8168.00
2022-08-25T10:22:11.456Z,7804.00
2022-08-25T10:23:11.449Z,8332.00
2022-08-25T10:24:11.449Z,8104.00
2022-08-25T10:25:11.437Z,8556.00
2022-08-25T10:26:11.407Z,9112.00
2022-08-25T10:27:11.389Z,9044.00
2022-08-25T10:28:11.367Z,8676.00
2022-08-25T10:29:11.348Z,8808.00
2022-08-25T10:30:11.416Z,8392.00
2022-08-25T10:31:11.398Z,8052.00
2022-08-25T10:32:12.313Z,7940.00
2022-08-25T10:33:11.309Z,8092.00
2022-08-25T10:34:11.309Z,8368.00
2022-08-25T10:35:12.100Z,8664.00
2022-08-25T10:36:11.269Z,9420.00
2022-08-25T10:37:11.298Z,9656.00
2022-08-25T10:38:11.230Z,9288.00
2022-08-25T10:39:31.568Z,9732.00
2022-08-25T10:40:12.358Z,10208.00
2022-08-25T10:41:11.209Z,10548.00
2022-08-25T10:42:11.228Z,10720.00
2022-08-25T10:43:11.169Z,10460.00
2022-08-25T10:44:11.172Z,9884.00
2022-08-25T10:45:14.805Z,9180.00
2022-08-25T10:46:12.171Z,8848.00
2022-08-25T10:47:11.142Z,8640.00
2022-08-25T10:48:11.143Z,9020.00
2022-08-25T10:49:11.104Z,9284.00
2022-08-25T10:50:11.147Z,9532.00
2022-08-25T10:51:14.609Z,9456.00
2022-08-25T10:52:12.052Z,9152.00
2022-08-25T10:53:11.053Z,9132.00
2022-08-25T10:54:11.053Z,9348.00
2022-08-25T10:55:11.044Z,8824.00
2022-08-25T10:56:11.023Z,8448.00
2022-08-25T10:57:10.996Z,9276.00
2022-08-25T10:58:10.983Z,8828.00
2022-08-25T10:59:10.974Z,9020.00
2022-08-25T11:00:11.025Z,10508.00
2022-08-25T11:01:10.979Z,9524.00
2022-08-25T11:02:10.948Z,8808.00
2022-08-25T11:03:10.955Z,8756.00
2022-08-25T11:04:10.929Z,8508.00
2022-08-25T11:05:11.115Z,8772.00
2022-08-25T11:06:10.915Z,7756.00
2022-08-25T11:07:10.876Z,8984.00
2022-08-25T11:08:11.537Z,9884.00
2022-08-25T11:09:10.846Z,9388.00
2022-08-25T11:10:11.388Z,8972.00
2022-08-25T11:11:10.816Z,8396.00
2022-08-25T11:12:10.817Z,7888.00
2022-08-25T11:13:11.238Z,7472.00
2022-08-25T11:14:11.422Z,7076.00
2022-08-25T11:15:10.777Z,6992.00
2022-08-25T11:16:17.436Z,7176.00
2022-08-25T11:17:11.811Z,6360.00
2022-08-25T11:18:14.784Z,6076.00
2022-08-25T11:19:10.719Z,6892.00
2022-08-25T11:20:13.115Z,7332.00
2022-08-25T11:21:11.700Z,6916.00
2022-08-25T11:22:10.691Z,8008.00
2022-08-25T11:23:11.353Z,7532.00
2022-08-25T11:24:10.688Z,6984.00
2022-08-25T11:25:10.650Z,8008.00
2022-08-25T11:26:10.619Z,8348.00
2022-08-25T11:27:13.799Z,8612.00
2022-08-25T11:28:10.620Z,8368.00
2022-08-25T11:29:11.485Z,8024.00
2022-08-25T11:30:10.617Z,8744.00
2022-08-25T11:31:10.696Z,9168.00
2022-08-25T11:32:10.563Z,8632.00
2022-08-25T11:33:10.629Z,8392.00
2022-08-25T11:34:10.523Z,8580.00
2022-08-25T11:35:12.205Z,8848.00
2022-08-25T11:36:10.883Z,8840.00
2022-08-25T11:37:11.311Z,7876.00
2022-08-25T11:38:10.471Z,7568.00
2022-08-25T11:39:10.465Z,7512.00
2022-08-25T11:40:10.504Z,8988.00
2022-08-25T11:41:11.323Z,9372.00
2022-08-25T11:42:10.424Z,10188.00
2022-08-25T11:43:10.415Z,10548.00
2022-08-25T11:44:10.395Z,10760.00
2022-08-25T11:45:10.436Z,9816.00
2022-08-25T11:46:10.390Z,9444.00
2022-08-25T11:47:14.781Z,9180.00
2022-08-25T11:48:11.333Z,8868.00
2022-08-25T11:49:10.334Z,8352.00
2022-08-25T11:50:10.359Z,7884.00
2022-08-25T11:51:10.305Z,7832.00
2022-08-25T11:52:10.398Z,7248.00
2022-08-25T11:53:11.335Z,6824.00
2022-08-25T11:54:10.255Z,6408.00
2022-08-25T11:55:10.341Z,6400.00
2022-08-25T11:56:10.250Z,6516.00
2022-08-25T11:57:10.228Z,6672.00
2022-08-25T11:58:10.230Z,6852.00
2022-08-25T11:59:10.212Z,6980.00
2022-08-25T12:00:10.189Z,7172.00
2022-08-25T12:01:10.180Z,9096.00
2022-08-25T12:02:10.178Z,9552.00
2022-08-25T12:03:10.180Z,9684.00
2022-08-25T12:04:10.196Z,9848.00
2022-08-25T12:05:10.282Z,9868.00
2022-08-25T12:06:10.099Z,10164.00
2022-08-25T12:07:10.100Z,10256.00
2022-08-25T12:08:10.089Z,10232.00
2022-08-25T12:09:10.081Z,10156.00
2022-08-25T12:10:10.064Z,10032.00
2022-08-25T12:11:11.230Z,9528.00
2022-08-25T12:12:10.031Z,8712.00
2022-08-25T12:13:10.531Z,8216.00
2022-08-25T12:14:10.015Z,7924.00
2022-08-25T12:15:10.033Z,8028.00
2022-08-25T12:16:09.978Z,8324.00
2022-08-25T12:17:12.214Z,9468.00
2022-08-25T12:18:10.366Z,9932.00
2022-08-25T12:19:09.975Z,9992.00
2022-08-25T12:20:10.002Z,9920.00
2022-08-25T12:21:09.944Z,9852.00
2022-08-25T12:22:09.903Z,9724.00
2022-08-25T12:23:09.894Z,9448.00
2022-08-25T12:24:09.890Z,9672.00
2022-08-25T12:25:09.894Z,10056.00
2022-08-25T12:26:11.059Z,10408.00
2022-08-25T12:27:09.844Z,10564.00
2022-08-25T12:28:09.826Z,10636.00
2022-08-25T12:29:09.816Z,10332.00